Time;durP1;ratioP1;P1;durP2;ratioP2;P2;SDS_P1;SDS_P2;PMS_P1;PMS_P2;Temp;Humidity;BMP_temperature;BMP_pressure;BME280_temperature;BME280_humidity;BME280_pressure;Samples;Min_cycle;Max_cycle;Signal;HPM_P1;HPM_P2
2022/12/30 00:00:16;;;;;;;0.10;0.10;;;;;;;5.25;100.00;100927.16;5021114;28;20120;-76
2022/12/30 00:02:41;;;;;;;0.10;0.10;;;;;;;5.06;100.00;100911.31;5016323;28;20132;-77
2022/12/30 00:05:07;;;;;;;0.10;0.10;;;;;;;4.83;100.00;100922.31;5026895;28;20030;-77
2022/12/30 00:07:35;;;;;;;0.10;0.10;;;;;;;4.87;100.00;100943.34;5017564;28;20025;-77
2022/12/30 00:10:01;;;;;;;0.20;0.20;;;;;;;5.21;100.00;100928.28;5020700;28;20280;-77
2022/12/30 00:34:43;;;;;;;0.17;0.17;;;;;;;4.84;100.00;100922.22;5018814;28;20036;-76
2022/12/30 00:37:08;;;;;;;0.10;0.10;;;;;;;4.87;100.00;100934.53;5021537;28;20037;-76
2022/12/30 00:39:33;;;;;;;0.10;0.10;;;;;;;4.84;100.00;100938.19;5007709;28;20029;-76
2022/12/30 00:44:43;;;;;;;0.15;0.15;;;;;;;5.07;100.00;100952.97;5023464;28;20091;-76
2022/12/30 00:47:09;;;;;;;0.10;0.10;;;;;;;5.23;100.00;100928.16;5009624;28;20029;-76
2022/12/30 00:57:46;;;;;;;0.17;0.17;;;;;;;5.19;100.00;100963.88;5023126;28;20071;-77
2022/12/30 01:00:12;;;;;;;0.10;0.10;;;;;;;4.98;100.00;100960.56;4999477;28;20041;-77
2022/12/30 01:02:38;;;;;;;0.20;0.20;;;;;;;4.94;100.00;100970.50;5007646;28;20488;-76
2022/12/30 01:05:04;;;;;;;0.10;0.10;;;;;;;4.78;100.00;100951.81;5022160;28;20456;-77
2022/12/30 01:07:30;;;;;;;0.10;0.10;;;;;;;4.87;100.00;100975.28;5018226;28;20053;-77
2022/12/30 01:09:56;;;;;;;0.20;0.20;;;;;;;4.94;100.00;100952.75;5006691;28;20551;-77
2022/12/30 01:12:21;;;;;;;0.10;0.10;;;;;;;4.94;100.00;100966.06;5011013;28;20435;-76
2022/12/30 01:14:50;;;;;;;0.13;0.13;;;;;;;5.02;100.00;100975.44;5016601;28;20132;-77
2022/12/30 01:17:24;;;;;;;0.10;0.10;;;;;;;4.82;100.00;100971.16;5012032;28;20075;-77
2022/12/30 01:19:49;;;;;;;0.20;0.20;;;;;;;4.77;100.00;100974.03;5016167;28;20030;-76
2022/12/30 01:22:14;;;;;;;0.10;0.10;;;;;;;4.70;100.00;100967.31;5012943;28;20495;-76
2022/12/30 01:24:40;;;;;;;0.20;0.20;;;;;;;4.85;100.00;100966.53;5013877;28;20044;-76
2022/12/30 01:27:05;;;;;;;0.10;0.10;;;;;;;4.88;100.00;100969.03;5019746;28;20075;-77
2022/12/30 01:29:41;;;;;;;0.20;0.20;;;;;;;4.79;100.00;100966.84;5014837;28;20540;-76
2022/12/30 01:32:12;;;;;;;0.10;0.10;;;;;;;4.85;100.00;100968.34;4998577;28;20029;-77
2022/12/30 01:34:38;;;;;;;0.20;0.20;;;;;;;4.75;100.00;100963.47;5023090;28;20029;-77
2022/12/30 01:37:04;;;;;;;0.10;0.10;;;;;;;4.72;100.00;100973.44;5017660;28;20045;-78
2022/12/30 01:39:30;;;;;;;0.15;0.15;;;;;;;4.82;100.00;100974.66;5016200;28;20108;-78
2022/12/30 01:41:56;;;;;;;0.20;0.20;;;;;;;4.83;100.00;101002.97;5018045;28;20418;-76
2022/12/30 01:44:59;;;;;;;0.20;0.20;;;;;;;4.70;100.00;100999.25;4998195;28;20068;-77
2022/12/30 01:47:30;;;;;;;0.10;0.10;;;;;;;4.72;100.00;101002.69;5019918;28;20032;-77
2022/12/30 01:50:05;;;;;;;0.20;0.20;;;;;;;4.51;100.00;100994.81;5015129;28;20040;-75
2022/12/30 01:52:30;;;;;;;;;;;;;;;4.68;100.00;101015.25;5020638;28;20033;-76
2022/12/30 01:55:01;;;;;;;0.20;0.20;;;;;;;4.79;100.00;101012.94;5004429;28;20727;-77
2022/12/30 01:57:26;;;;;;;0.20;0.20;;;;;;;4.60;100.00;101017.47;5015411;28;20034;-77
2022/12/30 01:59:52;;;;;;;0.15;0.15;;;;;;;4.45;100.00;101000.47;5008981;28;20040;-76
2022/12/30 02:02:17;;;;;;;0.10;0.10;;;;;;;4.64;100.00;101014.56;5022418;28;20030;-78
2022/12/30 02:04:43;;;;;;;0.10;0.10;;;;;;;4.66;100.00;101006.50;5019549;28;20060;-77
2022/12/30 02:07:20;;;;;;;0.20;0.20;;;;;;;4.89;100.00;101017.78;5016962;28;20432;-77
2022/12/30 02:09:46;;;;;;;0.20;0.20;;;;;;;4.67;100.00;101016.19;5022235;28;20044;-76
2022/12/30 02:12:12;;;;;;;0.20;0.20;;;;;;;4.82;100.00;101027.00;5022809;28;20436;-76
2022/12/30 02:14:38;;;;;;;0.20;0.20;;;;;;;4.62;100.00;100995.16;5020890;28;20030;-77
2022/12/30 02:17:40;;;;;;;0.20;0.20;;;;;;;4.78;100.00;101015.66;5023572;28;20048;-76
2022/12/30 02:20:46;;;;;;;0.10;0.10;;;;;;;4.57;100.00;101004.31;5022618;28;20029;-78
2022/12/30 02:23:57;;;;;;;0.10;0.10;;;;;;;4.73;100.00;101017.72;5016596;28;20518;-77
2022/12/30 02:26:59;;;;;;;0.20;0.20;;;;;;;4.66;100.00;101003.84;5022854;28;20030;-77
2022/12/30 02:29:56;;;;;;;0.20;0.20;;;;;;;4.62;100.00;101010.28;5021785;28;20040;-77
2022/12/30 02:32:43;;;;;;;0.20;0.20;;;;;;;4.63;100.00;101009.34;5025101;28;20036;-77
2022/12/30 02:35:18;;;;;;;0.20;0.20;;;;;;;4.63;100.00;101004.00;5040616;28;20263;-77
2022/12/30 02:37:59;;;;;;;0.20;0.20;;;;;;;4.97;100.00;100993.44;5021609;28;20029;-75
2022/12/30 02:44:36;;;;;;;0.20;0.20;;;;;;;4.55;100.00;100967.16;5017887;28;20061;-78
2022/12/30 02:46:06;;;;;;;0.20;0.20;;;;;;;4.45;100.00;101001.31;5024614;28;20040;-77
2022/12/30 02:48:32;;;;;;;0.20;0.20;;;;;;;4.44;100.00;100988.13;5023387;28;20383;-78
2022/12/30 02:53:42;;;;;;;;;;;;;;;4.11;100.00;100984.34;5022854;28;20515;-77
2022/12/30 02:56:08;;;;;;;0.20;0.20;;;;;;;4.00;100.00;100992.00;5007176;28;19920;-78
2022/12/30 02:58:44;;;;;;;0.20;0.20;;;;;;;3.71;100.00;100951.75;5004721;28;20033;-78
2022/12/30 03:04:55;;;;;;;0.20;0.20;;;;;;;3.90;100.00;100946.41;5022910;28;20075;-78
2022/12/30 03:07:26;;;;;;;0.20;0.20;;;;;;;4.30;100.00;100965.72;5018162;28;20503;-77
2022/12/30 03:13:15;;;;;;;0.20;0.20;;;;;;;3.76;100.00;100931.16;5018577;28;20487;-78
2022/12/30 03:16:06;;;;;;;0.17;0.17;;;;;;;3.80;100.00;100935.38;5025328;28;20029;-76
2022/12/30 03:18:32;;;;;;;0.20;0.20;;;;;;;4.03;100.00;100963.47;5013628;28;20040;-78
2022/12/30 03:20:59;;;;;;;0.20;0.20;;;;;;;3.74;100.00;100960.41;5022547;28;20112;-77
2022/12/30 03:28:55;;;;;;;0.20;0.20;;;;;;;3.86;100.00;100947.50;5017101;28;20713;-77
2022/12/30 03:31:21;;;;;;;0.20;0.20;;;;;;;3.92;100.00;100952.53;5021746;28;20037;-76
2022/12/30 03:33:47;;;;;;;0.20;0.20;;;;;;;3.40;100.00;100926.63;5024240;28;20060;-76
2022/12/30 03:36:37;;;;;;;0.20;0.20;;;;;;;3.64;100.00;100968.88;5023999;28;20536;-77
2022/12/30 03:39:33;;;;;;;0.20;0.20;;;;;;;3.76;100.00;100952.41;5016757;28;20036;-77
2022/12/30 03:41:59;;;;;;;0.20;0.20;;;;;;;3.92;100.00;100955.19;5015282;28;20124;-77
2022/12/30 03:44:24;;;;;;;0.20;0.20;;;;;;;3.72;100.00;100945.50;5023006;28;20087;-76
2022/12/30 03:46:51;;;;;;;0.20;0.20;;;;;;;3.72;100.00;100948.16;5022530;28;20037;-76
2022/12/30 03:49:17;;;;;;;0.20;0.20;;;;;;;3.51;100.00;100942.94;4997714;28;20437;-77
2022/12/30 03:51:43;;;;;;;0.20;0.20;;;;;;;3.37;100.00;100946.22;5021294;28;20037;-78
2022/12/30 03:54:08;;;;;;;0.30;0.30;;;;;;;3.37;100.00;100956.84;5022151;28;20025;-77
2022/12/30 03:56:34;;;;;;;0.20;0.20;;;;;;;3.29;100.00;100964.28;5004151;28;20029;-77
2022/12/30 03:58:59;;;;;;;0.20;0.20;;;;;;;3.13;100.00;100940.22;5016359;28;20437;-77
2022/12/30 04:01:24;;;;;;;0.30;0.30;;;;;;;3.25;100.00;100950.28;5008080;28;20483;-77
2022/12/30 04:03:50;;;;;;;0.20;0.20;;;;;;;3.41;100.00;100952.25;5016916;28;20459;-77
2022/12/30 04:06:16;;;;;;;0.20;0.20;;;;;;;3.15;100.00;100951.63;5024498;28;20383;-77
2022/12/30 04:08:41;;;;;;;0.20;0.20;;;;;;;3.42;100.00;100956.63;5021808;28;20083;-78
2022/12/30 04:11:07;;;;;;;0.20;0.20;;;;;;;3.29;100.00;100954.53;5015998;28;20056;-77
2022/12/30 04:13:32;;;;;;;0.17;0.17;;;;;;;3.27;100.00;100972.31;5019657;28;20049;-77
2022/12/30 04:15:58;;;;;;;0.22;0.22;;;;;;;3.57;100.00;100978.94;5008077;28;20030;-77
2022/12/30 04:18:23;;;;;;;0.20;0.20;;;;;;;3.40;100.00;100971.75;5001343;28;20033;-77
2022/12/30 04:20:50;;;;;;;0.20;0.20;;;;;;;3.27;100.00;100956.41;5005509;28;20388;-77
2022/12/30 04:23:16;;;;;;;0.20;0.20;;;;;;;3.36;100.00;100935.66;5022584;28;20146;-78
2022/12/30 04:25:41;;;;;;;0.30;0.30;;;;;;;3.17;100.00;100952.44;5019099;28;20025;-78
2022/12/30 04:28:07;;;;;;;0.20;0.20;;;;;;;3.26;100.00;100953.78;5015254;28;20040;-76
2022/12/30 04:30:33;;;;;;;0.20;0.20;;;;;;;2.98;100.00;100937.34;5018451;28;20050;-77
2022/12/30 04:32:59;;;;;;;0.20;0.20;;;;;;;3.30;100.00;100958.91;5004851;28;20440;-77
2022/12/30 04:35:25;;;;;;;0.20;0.20;;;;;;;3.18;100.00;100946.19;5016691;28;20501;-76
2022/12/30 04:37:50;;;;;;;0.20;0.20;;;;;;;3.08;100.00;100939.56;5007519;28;20033;-77
2022/12/30 04:40:16;;;;;;;0.10;0.10;;;;;;;3.21;100.00;100943.41;5022327;28;20148;-77
2022/12/30 04:42:42;;;;;;;0.20;0.20;;;;;;;3.11;100.00;100944.72;5026780;28;20116;-76
2022/12/30 04:45:08;;;;;;;0.20;0.20;;;;;;;3.44;100.00;100942.31;5020140;28;20186;-77
2022/12/30 04:47:33;;;;;;;0.20;0.20;;;;;;;3.37;100.00;100935.59;5024291;28;20103;-77
2022/12/30 04:49:58;;;;;;;0.20;0.20;;;;;;;3.33;100.00;100959.69;5024568;28;20065;-77
2022/12/30 04:52:24;;;;;;;0.20;0.20;;;;;;;3.26;100.00;100946.72;5024092;28;20065;-77
2022/12/30 04:54:49;;;;;;;0.20;0.20;;;;;;;3.37;100.00;100953.31;5021496;28;20066;-76
2022/12/30 04:57:15;;;;;;;0.10;0.10;;;;;;;3.45;100.00;100940.56;4997059;28;20021;-77
2022/12/30 04:59:40;;;;;;;0.20;0.20;;;;;;;3.18;100.00;100945.34;5022077;28;20380;-77
2022/12/30 05:02:06;;;;;;;0.20;0.20;;;;;;;3.17;100.00;100947.13;5004180;28;20488;-78
2022/12/30 05:04:31;;;;;;;0.20;0.20;;;;;;;3.27;100.00;100956.41;5005659;28;20067;-77
2022/12/30 05:06:56;;;;;;;0.20;0.20;;;;;;;3.50;100.00;100970.41;5022941;28;20017;-77
2022/12/30 05:09:22;;;;;;;0.25;0.25;;;;;;;3.50;100.00;100950.94;5020511;28;20024;-77
2022/12/30 05:11:47;;;;;;;0.20;0.20;;;;;;;3.36;100.00;100975.47;5021833;28;20039;-78
2022/12/30 05:14:12;;;;;;;0.20;0.20;;;;;;;3.05;100.00;100951.19;5020812;28;20495;-77
2022/12/30 05:16:38;;;;;;;0.20;0.20;;;;;;;3.47;100.00;100954.63;5005453;28;20025;-77
2022/12/30 05:19:03;;;;;;;0.20;0.20;;;;;;;3.62;100.00;100978.72;5002242;28;20033;-77
2022/12/30 05:21:28;;;;;;;0.20;0.20;;;;;;;3.48;100.00;100932.44;5007684;28;22036;-76
2022/12/30 05:26:38;;;;;;;0.25;0.25;;;;;;;3.39;100.00;100939.06;5025803;28;20495;-76
2022/12/30 05:29:03;;;;;;;0.20;0.20;;;;;;;3.43;100.00;100929.13;5025058;28;20033;-76
2022/12/30 05:31:28;;;;;;;0.20;0.20;;;;;;;3.72;100.00;100914.47;5003717;28;20029;-76
2022/12/30 05:33:54;;;;;;;0.25;0.25;;;;;;;3.58;100.00;100932.88;5011711;28;20021;-78
2022/12/30 05:36:19;;;;;;;0.20;0.20;;;;;;;3.60;100.00;100929.19;5011016;28;20065;-77
2022/12/30 05:38:45;;;;;;;0.20;0.20;;;;;;;3.75;100.00;100937.38;5003496;28;20030;-77
2022/12/30 05:41:11;;;;;;;0.20;0.20;;;;;;;3.73;100.00;100957.84;5021174;28;20442;-78
2022/12/30 05:43:36;;;;;;;0.20;0.20;;;;;;;3.60;100.00;100947.78;5026016;28;20472;-76
2022/12/30 05:46:02;;;;;;;0.22;0.22;;;;;;;3.68;100.00;100933.28;5028228;28;20033;-76
2022/12/30 05:48:27;;;;;;;0.20;0.20;;;;;;;3.79;100.00;100952.25;5009095;28;20448;-76
2022/12/30 05:50:52;;;;;;;0.15;0.15;;;;;;;3.62;100.00;100929.16;5011259;28;20658;-77
2022/12/30 05:53:18;;;;;;;0.20;0.20;;;;;;;3.53;100.00;100932.22;5010836;28;20877;-77
2022/12/30 05:55:43;;;;;;;0.20;0.20;;;;;;;3.74;100.00;100939.16;5025012;28;20029;-78
2022/12/30 05:58:09;;;;;;;0.10;0.10;;;;;;;3.44;100.00;100944.13;5025611;28;20056;-77
2022/12/30 06:00:35;;;;;;;0.20;0.20;;;;;;;3.44;100.00;100939.66;5021912;28;20037;-76
2022/12/30 06:03:00;;;;;;;0.20;0.20;;;;;;;3.71;100.00;100941.97;5007972;28;20064;-77
2022/12/30 06:05:26;;;;;;;0.20;0.20;;;;;;;3.53;100.00;100929.56;5024272;28;20113;-76
2022/12/30 06:07:51;;;;;;;0.20;0.20;;;;;;;3.44;100.00;100939.66;5006495;28;20017;-76
2022/12/30 06:10:17;;;;;;;0.20;0.20;;;;;;;3.78;100.00;100923.97;5012030;28;20041;-77
2022/12/30 06:12:42;;;;;;;0.20;0.20;;;;;;;3.83;100.00;100932.59;5019595;28;20748;-77
2022/12/30 06:15:08;;;;;;;0.20;0.20;;;;;;;3.73;100.00;100910.03;5007180;28;20025;-76
2022/12/30 06:17:33;;;;;;;0.20;0.20;;;;;;;3.68;100.00;100906.75;5021443;28;20029;-77
2022/12/30 06:19:58;;;;;;;0.20;0.20;;;;;;;3.65;100.00;100922.81;5012893;28;20099;-76
2022/12/30 06:22:24;;;;;;;0.20;0.20;;;;;;;3.48;100.00;100937.75;5025279;28;20476;-78
2022/12/30 06:24:49;;;;;;;0.20;0.20;;;;;;;3.48;100.00;100919.19;5027184;28;20034;-75
2022/12/30 06:27:15;;;;;;;0.20;0.20;;;;;;;3.51;100.00;100937.63;5025087;28;20037;-76
2022/12/30 06:29:40;;;;;;;0.20;0.20;;;;;;;3.32;100.00;100905.75;5012585;28;20048;-75
2022/12/30 06:32:05;;;;;;;0.20;0.20;;;;;;;3.56;100.00;100929.44;5009553;28;20039;-75
2022/12/30 06:34:31;;;;;;;0.20;0.20;;;;;;;3.25;100.00;100889.25;5021093;28;20033;-76
2022/12/30 06:36:56;;;;;;;0.20;0.20;;;;;;;3.47;100.00;100906.84;5010963;28;20116;-77
2022/12/30 06:39:21;;;;;;;0.20;0.20;;;;;;;3.39;100.00;100895.69;5009542;28;20503;-77
2022/12/30 06:41:47;;;;;;;0.20;0.20;;;;;;;3.77;100.00;100908.97;5012368;28;20037;-77
2022/12/30 06:44:12;;;;;;;0.10;0.10;;;;;;;3.57;100.00;100915.22;5028497;28;20075;-76
2022/12/30 06:46:37;;;;;;;0.20;0.20;;;;;;;3.70;100.00;100902.22;5022333;28;20063;-77
2022/12/30 06:49:03;;;;;;;0.20;0.20;;;;;;;3.48;100.00;100908.56;5008014;28;20056;-76
2022/12/30 06:51:28;;;;;;;0.25;0.25;;;;;;;3.66;100.00;100890.91;5028322;28;20371;-76
2022/12/30 06:53:53;;;;;;;0.20;0.20;;;;;;;3.63;100.00;100916.72;5027000;28;20033;-76
2022/12/30 06:56:19;;;;;;;0.20;0.20;;;;;;;3.64;100.00;100919.31;5017070;28;20128;-76
2022/12/30 06:58:44;;;;;;;0.30;0.30;;;;;;;3.68;100.00;100885.50;5009233;28;20040;-76
2022/12/30 07:01:09;;;;;;;0.22;0.22;;;;;;;3.90;100.00;100899.44;5022260;28;20160;-77
2022/12/30 07:03:35;;;;;;;0.10;0.10;;;;;;;3.47;100.00;100866.13;5021740;28;20057;-76
2022/12/30 07:06:00;;;;;;;0.20;0.20;;;;;;;3.80;100.00;100881.38;5005531;28;20091;-76
2022/12/30 07:08:25;;;;;;;0.20;0.20;;;;;;;3.90;100.00;100886.16;5018498;28;20139;-78
2022/12/30 07:10:51;;;;;;;0.20;0.20;;;;;;;3.72;100.00;100861.38;5018250;28;20028;-75
2022/12/30 07:13:16;;;;;;;0.20;0.20;;;;;;;3.56;100.00;100848.00;5017871;28;20033;-75
2022/12/30 07:15:42;;;;;;;0.20;0.20;;;;;;;3.55;100.00;100848.06;5006601;28;20041;-75
2022/12/30 07:18:08;;;;;;;0.20;0.20;;;;;;;3.65;100.00;100845.81;5020457;28;20053;-75
2022/12/30 07:20:33;;;;;;;0.30;0.30;;;;;;;3.67;100.00;100831.53;5019641;28;20040;-75
2022/12/30 07:22:58;;;;;;;0.20;0.20;;;;;;;3.53;100.00;100836.66;5022134;28;20040;-73
2022/12/30 07:25:24;;;;;;;0.20;0.20;;;;;;;3.58;100.00;100834.63;5002937;28;20120;-76
2022/12/30 07:27:49;;;;;;;0.25;0.25;;;;;;;3.67;100.00;100830.66;5022878;28;20025;-75
2022/12/30 07:30:14;;;;;;;0.20;0.20;;;;;;;3.54;100.00;100825.09;5021544;28;20414;-75
2022/12/30 07:32:40;;;;;;;0.28;0.28;;;;;;;3.89;100.00;100846.41;5006576;28;20043;-75
2022/12/30 07:35:08;;;;;;;0.20;0.20;;;;;;;3.52;100.00;100842.88;5019508;28;20039;-75
2022/12/30 07:37:35;;;;;;;0.20;0.20;;;;;;;3.63;100.00;100851.22;5007251;28;20029;-76
2022/12/30 07:40:00;;;;;;;0.20;0.20;;;;;;;3.68;100.00;100835.03;5020491;28;20124;-75
2022/12/30 07:42:27;;;;;;;0.20;0.20;;;;;;;3.60;100.00;100846.03;5019784;28;20029;-75
2022/12/30 07:44:52;;;;;;;0.20;0.20;;;;;;;3.79;100.00;100821.22;5019747;28;20476;-75
2022/12/30 07:47:17;;;;;;;0.20;0.20;;;;;;;3.81;100.00;100820.25;5025162;28;20037;-75
2022/12/30 07:49:43;;;;;;;0.20;0.20;;;;;;;4.14;100.00;100829.22;5005185;28;20143;-75
2022/12/30 07:52:08;;;;;;;0.20;0.20;;;;;;;4.01;100.00;100829.00;5019757;28;20026;-74
2022/12/30 07:54:33;;;;;;;0.20;0.20;;;;;;;4.10;100.00;100803.75;5018977;28;20052;-76
2022/12/30 07:56:59;;;;;;;0.20;0.20;;;;;;;3.96;100.00;100789.38;5005911;28;20025;-74
2022/12/30 07:59:24;;;;;;;0.20;0.20;;;;;;;4.10;100.00;100778.06;5002351;28;21589;-75
2022/12/30 08:01:49;;;;;;;0.20;0.20;;;;;;;4.20;100.00;100781.09;5031433;28;20048;-75
2022/12/30 08:04:16;;;;;;;0.30;0.30;;;;;;;3.96;100.00;100796.47;5019385;28;20025;-75
2022/12/30 08:06:41;;;;;;;0.20;0.20;;;;;;;4.44;100.00;100784.25;5014947;28;20103;-74
2022/12/30 08:09:06;;;;;;;0.20;0.20;;;;;;;4.23;100.00;100780.94;5015855;28;20785;-76
2022/12/30 08:11:32;;;;;;;0.20;0.20;;;;;;;4.50;100.00;100781.25;4996771;28;20040;-76
2022/12/30 08:13:57;;;;;;;0.20;0.20;;;;;;;4.48;100.00;100776.97;5020470;28;20518;-74
2022/12/30 08:16:23;;;;;;;0.10;0.10;;;;;;;4.43;100.00;100742.63;5018048;28;20056;-76
2022/12/30 08:18:48;;;;;;;0.20;0.20;;;;;;;4.30;100.00;100738.94;5006915;28;20059;-76
2022/12/30 08:21:15;;;;;;;0.13;0.13;;;;;;;4.81;100.00;100778.72;5020998;28;20136;-75
2022/12/30 08:23:42;;;;;;;0.20;0.20;;;;;;;4.66;100.00;100772.44;5017479;28;20478;-77
2022/12/30 08:26:20;;;;;;;0.15;0.15;;;;;;;4.74;100.00;100772.06;5017853;28;20021;-77
2022/12/30 08:28:45;;;;;;;0.20;0.20;;;;;;;4.92;100.00;100764.84;5022657;28;20472;-75
2022/12/30 08:31:13;;;;;;;0.20;0.20;;;;;;;5.08;100.00;100764.84;5008979;28;20037;-74
2022/12/30 08:33:39;;;;;;;0.20;0.20;;;;;;;5.13;100.00;100756.63;5008173;28;20450;-75
2022/12/30 08:36:07;;;;;;;0.20;0.20;;;;;;;5.10;100.00;100745.22;5025226;28;20053;-75
2022/12/30 08:38:34;;;;;;;0.20;0.20;;;;;;;5.00;100.00;100722.72;5008666;28;20412;-76
2022/12/30 08:41:10;;;;;;;0.10;0.10;;;;;;;5.25;100.00;100743.47;5015777;28;20076;-76
2022/12/30 08:43:36;;;;;;;0.20;0.20;;;;;;;5.02;100.00;100680.06;5020200;28;20025;-76
2022/12/30 08:46:02;;;;;;;0.10;0.10;;;;;;;5.12;100.00;100689.22;5008280;28;20102;-76
2022/12/30 08:48:27;;;;;;;0.20;0.20;;;;;;;5.22;100.00;100710.84;5008356;28;20362;-76
2022/12/30 08:50:54;;;;;;;0.10;0.10;;;;;;;5.44;100.00;100712.25;5015539;28;20041;-75
2022/12/30 08:53:19;;;;;;;0.10;0.10;;;;;;;5.13;100.00;100706.91;5020945;28;20048;-77
2022/12/30 08:55:44;;;;;;;0.10;0.10;;;;;;;5.27;100.00;100727.41;5025086;28;20479;-74
2022/12/30 08:58:10;;;;;;;0.10;0.10;;;;;;;5.29;100.00;100696.22;5023232;28;20534;-76
2022/12/30 09:00:36;;;;;;;0.13;0.13;;;;;;;5.70;100.00;100694.75;5006685;28;20476;-76
2022/12/30 09:03:02;;;;;;;0.10;0.10;;;;;;;5.27;100.00;100711.44;5020229;28;20037;-77
2022/12/30 09:05:28;;;;;;;0.10;0.10;;;;;;;5.39;100.00;100686.78;5008852;28;20040;-76
2022/12/30 09:07:53;;;;;;;0.10;0.10;;;;;;;5.25;100.00;100673.38;5025222;28;20407;-75
2022/12/30 09:10:19;;;;;;;0.10;0.10;;;;;;;5.67;100.00;100678.94;5022945;28;20124;-75
2022/12/30 09:12:44;;;;;;;0.20;0.20;;;;;;;5.52;100.00;100665.59;5005979;28;20128;-76
2022/12/30 09:15:10;;;;;;;0.10;0.10;;;;;;;5.53;100.00;100674.44;5025355;28;20087;-76
2022/12/30 09:17:35;;;;;;;0.10;0.10;;;;;;;5.97;100.00;100689.53;5008171;28;20057;-75
2022/12/30 09:20:00;;;;;;;0.10;0.10;;;;;;;5.78;100.00;100649.84;5020059;28;20116;-73
2022/12/30 09:22:26;;;;;;;0.20;0.20;;;;;;;5.88;100.00;100697.25;5015089;28;20025;-75
2022/12/30 09:24:51;;;;;;;0.10;0.10;;;;;;;5.87;100.00;100661.75;5007774;28;20092;-73
2022/12/30 09:27:16;;;;;;;0.10;0.10;;;;;;;5.70;100.00;100634.31;5004574;28;20468;-72
2022/12/30 09:29:42;;;;;;;0.10;0.10;;;;;;;6.05;100.00;100642.94;5022900;28;20381;-73
2022/12/30 09:32:07;;;;;;;0.10;0.10;;;;;;;6.30;100.00;100643.13;5010017;28;20026;-73
2022/12/30 09:34:32;;;;;;;0.10;0.10;;;;;;;5.97;100.00;100633.56;5024263;28;20030;-75
2022/12/30 09:36:58;;;;;;;0.20;0.20;;;;;;;6.09;100.00;100625.81;5008458;28;20529;-75
2022/12/30 09:39:30;;;;;;;0.10;0.10;;;;;;;6.03;100.00;100618.19;5024171;28;20072;-75
2022/12/30 09:45:11;;;;;;;0.20;0.20;;;;;;;6.24;100.00;100622.16;5023748;28;20131;-73
2022/12/30 09:47:44;;;;;;;0.17;0.17;;;;;;;6.21;100.00;100629.50;5008411;28;20021;-75
2022/12/30 09:50:34;;;;;;;0.20;0.20;;;;;;;6.19;100.00;100639.41;5024515;28;20100;-75
2022/12/30 09:53:30;;;;;;;0.10;0.10;;;;;;;6.28;100.00;100641.53;5024828;28;20060;-75
2022/12/30 09:56:14;;;;;;;0.13;0.13;;;;;;;6.36;100.00;100611.69;5006367;28;20087;-75
2022/12/30 09:58:41;;;;;;;0.10;0.10;;;;;;;6.26;100.00;100620.28;5023821;28;20034;-75
2022/12/30 10:01:16;;;;;;;0.10;0.10;;;;;;;6.18;100.00;100611.03;5024152;28;20535;-74
2022/12/30 10:03:42;;;;;;;0.10;0.10;;;;;;;6.48;100.00;100605.59;5022776;28;20033;-72
2022/12/30 10:06:33;;;;;;;0.15;0.15;;;;;;;6.43;100.00;100611.19;5013758;28;20105;-76
2022/12/30 10:09:25;;;;;;;0.10;0.10;;;;;;;6.69;100.00;100600.66;5020566;28;20027;-75
2022/12/30 10:11:57;;;;;;;0.10;0.10;;;;;;;6.69;100.00;100608.66;5011560;28;20408;-76
2022/12/30 10:14:42;;;;;;;0.10;0.10;;;;;;;6.59;100.00;100587.06;5021847;28;20029;-76
2022/12/30 10:17:33;;;;;;;0.20;0.20;;;;;;;6.47;100.00;100558.53;5018942;28;20038;-76
2022/12/30 10:20:11;;;;;;;0.10;0.10;;;;;;;6.72;100.00;100564.91;5025953;28;20044;-74
2022/12/30 10:22:57;;;;;;;0.10;0.10;;;;;;;6.71;100.00;100574.72;5024354;28;20033;-74
2022/12/30 10:25:25;;;;;;;0.10;0.10;;;;;;;6.94;100.00;100566.16;5005582;28;20053;-74
2022/12/30 10:27:56;;;;;;;0.10;0.10;;;;;;;6.96;100.00;100562.41;5023604;28;20407;-75
2022/12/30 10:30:23;;;;;;;0.10;0.10;;;;;;;7.07;100.00;100536.81;5023458;28;20068;-77
2022/12/30 10:32:53;;;;;;;0.10;0.10;;;;;;;7.08;100.00;100557.22;5018786;28;20065;-75
2022/12/30 10:35:23;;;;;;;0.10;0.10;;;;;;;7.12;100.00;100545.38;5016254;28;20079;-74
2022/12/30 10:37:54;;;;;;;0.10;0.10;;;;;;;7.31;100.00;100542.28;5022446;28;20095;-75
2022/12/30 10:40:23;;;;;;;0.10;0.10;;;;;;;7.14;100.00;100522.09;5010422;28;20377;-74
2022/12/30 10:42:51;;;;;;;0.20;0.20;;;;;;;7.21;100.00;100515.34;5022833;28;20057;-74
2022/12/30 10:45:35;;;;;;;0.17;0.17;;;;;;;7.27;100.00;100493.56;5012979;28;20108;-74
2022/12/30 10:48:19;;;;;;;0.10;0.10;;;;;;;7.13;100.00;100494.53;5024594;28;20041;-75
2022/12/30 10:50:45;;;;;;;0.13;0.13;;;;;;;7.39;100.00;100488.34;5024003;28;20512;-76
2022/12/30 10:53:21;;;;;;;0.10;0.10;;;;;;;7.39;100.00;100464.31;5025440;28;20055;-73
2022/12/30 10:55:51;;;;;;;0.15;0.15;;;;;;;7.26;100.00;100467.84;5005934;28;20021;-74
2022/12/30 10:58:44;;;;;;;0.10;0.10;;;;;;;7.36;100.00;100433.31;5024064;28;20029;-75
2022/12/30 11:01:15;;;;;;;0.10;0.10;;;;;;;7.30;100.00;100447.09;5026867;28;20055;-75
2022/12/30 11:03:47;;;;;;;0.10;0.10;;;;;;;7.55;100.00;100424.84;5009183;28;20083;-73
2022/12/30 11:06:18;;;;;;;0.10;0.10;;;;;;;7.53;100.00;100421.44;5026954;28;20022;-74
2022/12/30 11:08:43;;;;;;;0.10;0.10;;;;;;;7.37;100.00;100424.34;5023212;28;20487;-76
2022/12/30 11:11:09;;;;;;;0.10;0.10;;;;;;;7.80;100.00;100421.28;5004988;28;20037;-75
2022/12/30 11:16:27;;;;;;;0.10;0.10;;;;;;;7.64;100.00;100378.78;5026215;28;20051;-75
2022/12/30 11:18:52;;;;;;;0.10;0.10;;;;;;;7.45;100.00;100368.56;5022059;28;20071;-74
2022/12/30 11:21:30;;;;;;;0.10;0.10;;;;;;;7.91;100.00;100372.38;5008497;28;20049;-73
2022/12/30 11:23:57;;;;;;;0.10;0.10;;;;;;;7.52;100.00;100357.44;5023122;28;20547;-74
2022/12/30 11:26:26;;;;;;;0.10;0.10;;;;;;;7.53;100.00;100353.81;5020636;28;20022;-75
2022/12/30 11:29:15;;;;;;;0.10;0.10;;;;;;;7.67;100.00;100350.13;5022310;28;20033;-76
2022/12/30 11:31:45;;;;;;;0.10;0.10;;;;;;;7.58;100.00;100340.94;5021983;28;20033;-75
2022/12/30 11:34:30;;;;;;;0.10;0.10;;;;;;;7.85;100.00;100335.41;5012004;28;20473;-75
2022/12/30 11:37:25;;;;;;;0.10;0.10;;;;;;;7.92;100.00;100323.28;5016671;28;20071;-75
2022/12/30 11:39:50;;;;;;;;;;;;;;;7.79;100.00;100328.69;5022783;28;20036;-75
2022/12/30 11:42:36;;;;;;;0.10;0.10;;;;;;;7.60;100.00;100314.97;5003958;28;19917;-76
2022/12/30 11:45:18;;;;;;;0.10;0.10;;;;;;;7.67;100.00;100302.88;5004573;28;20112;-76
2022/12/30 11:47:45;;;;;;;0.10;0.10;;;;;;;7.62;100.00;100294.34;5017812;28;20670;-75
2022/12/30 11:50:16;;;;;;;0.10;0.10;;;;;;;7.67;100.00;100259.28;5007104;28;20025;-74
2022/12/30 11:52:48;;;;;;;0.10;0.10;;;;;;;7.76;100.00;100266.59;5021980;28;20068;-74
2022/12/30 11:55:23;;;;;;;0.20;0.20;;;;;;;7.64;100.00;100257.66;5018918;28;20017;-75
2022/12/30 11:57:50;;;;;;;0.10;0.10;;;;;;;7.65;100.00;100225.50;5020430;28;20088;-75
2022/12/30 12:00:15;;;;;;;0.10;0.10;;;;;;;7.77;100.00;100228.22;5001944;28;20038;-75
2022/12/30 12:02:45;;;;;;;0.10;0.10;;;;;;;7.91;100.00;100229.81;5012301;28;20029;-77
2022/12/30 12:05:22;;;;;;;0.10;0.10;;;;;;;7.92;100.00;100239.56;5017881;28;20074;-75
2022/12/30 12:07:49;;;;;;;0.10;0.10;;;;;;;7.87;100.00;100215.00;5015360;28;20022;-76
2022/12/30 12:10:22;;;;;;;0.10;0.10;;;;;;;8.13;100.00;100223.69;5015992;28;20087;-74
2022/12/30 12:12:55;;;;;;;0.10;0.10;;;;;;;7.90;100.00;100220.97;5016405;28;20682;-76
2022/12/30 12:15:29;;;;;;;0.10;0.10;;;;;;;8.25;100.00;100203.16;5020687;28;20043;-77
2022/12/30 12:17:57;;;;;;;0.10;0.10;;;;;;;8.18;100.00;100201.94;5016258;28;20034;-76
2022/12/30 12:20:40;;;;;;;0.13;0.13;;;;;;;8.20;100.00;100189.28;5012362;28;20037;-75
2022/12/30 12:23:12;;;;;;;0.10;0.10;;;;;;;7.95;100.00;100159.97;4994761;28;20091;-76
2022/12/30 12:25:43;;;;;;;0.10;0.10;;;;;;;8.10;100.00;100192.69;5016960;28;20030;-74
2022/12/30 12:28:11;;;;;;;0.10;0.10;;;;;;;8.05;100.00;100144.09;5002072;28;20047;-75
2022/12/30 12:30:54;;;;;;;0.10;0.10;;;;;;;8.33;100.00;100163.31;5015804;28;20034;-76
2022/12/30 12:33:42;;;;;;;0.10;0.10;;;;;;;8.59;100.00;100152.38;5013109;28;20374;-75
2022/12/30 12:36:32;;;;;;;0.10;0.10;;;;;;;8.23;100.00;100120.34;5014797;28;20099;-76